Ana Sayfa
METAR-TAF:

METAR-TAF

Havaalanları :

Şakirpaşa Havalimanı

Adana, Türkiye

Enlem: 36-59N, Boylam: 035-18E, yükseklik: 20 m

Güncel hava durumu gözlemi

Rapor saat 22:20 UTC de 27 dakika önce yapıldı.
Rüzgar kuzey/kuzeydoğudan 3 kt
Sıcaklık 11°C
Nem 100%
Basınç 1018 hPa
Görüş mesafesi: 4500 m
Pus

METAR: LTAF 192220Z 02003KT 4500 BR NSC 11/11 Q1018 NOSIG RMK RWY23 05004KT

Saat: 01:47 (22:47 UTC)


TAF: eksik

4.000'den fazla havaalanı için hava durumu gözlemleri ve tahminleri (METAR ve TAF raporları).

Kullanılabilir istasyonlar harita üzerinde sarı ve kırmızı noktalarla gösterilir.

İstasyonun adını görmek için fareyi noktanın üzerinde gezdirin.

Sonrasında hava gözlem ve tahminlerini görmek için tıklayın.

Haritayı değiştirmek için: yaklaştırmak için siyah artı işaretli yeşil düğmeye ve uzaklaştırmak için de eksi işaretli düğmeye hızla tıklayın; bitişik haritalar için yeşil okları kullanın.


METAR-TAF: